Terminal Aerodrome Forecast
Issued by NWS

Home | Current Version | Previous Version | Text Only | Print | Product List | Glossary On
Versions: 1 2 3 4 5 6 7 8 9 10 11 12 13 14 15 16 17 18 19 20 21 22 23
164
FTUS46 KPDT 062202 AAB
TAFBDN
TAF AMD
KBDN 062202Z 0622/0718 35006KT P6SM SCT010 BKN015 OVC040
      TEMPO 0622/0701 3SM -SHSN BR BKN010 OVC015
     FM070100 VRB03KT P6SM SCT015 BKN040
     FM070500 VRB03KT P6SM SCT040=

USA.gov is the U.S. government's official web portal to all federal, state and local government web resources and services.